sensor_id;sensor_type;location;lat;lon;timestamp;P1;durP1;ratioP1;P2;durP2;ratioP2
77384;SDS011;66443;49.122;8.346;2023-02-19T00:01:16;5.73;;;3.40;;
77384;SDS011;66443;49.122;8.346;2023-02-19T00:03:42;3.23;;;3.03;;
77384;SDS011;66443;49.122;8.346;2023-02-19T00:06:09;3.53;;;3.23;;
77384;SDS011;66443;49.122;8.346;2023-02-19T00:08:35;3.47;;;3.23;;
77384;SDS011;66443;49.122;8.346;2023-02-19T00:11:02;3.33;;;3.03;;
77384;SDS011;66443;49.122;8.346;2023-02-19T00:13:27;3.20;;;3.00;;
77384;SDS011;66443;49.122;8.346;2023-02-19T00:15:52;3.23;;;3.00;;
77384;SDS011;66443;49.122;8.346;2023-02-19T00:18:17;3.20;;;2.90;;
77384;SDS011;66443;49.122;8.346;2023-02-19T00:20:42;3.40;;;3.10;;
77384;SDS011;66443;49.122;8.346;2023-02-19T00:23:08;3.13;;;2.93;;
77384;SDS011;66443;49.122;8.346;2023-02-19T00:25:35;3.50;;;2.70;;
77384;SDS011;66443;49.122;8.346;2023-02-19T00:28:00;2.97;;;2.77;;
77384;SDS011;66443;49.122;8.346;2023-02-19T00:30:25;2.90;;;2.70;;
77384;SDS011;66443;49.122;8.346;2023-02-19T00:32:50;2.67;;;2.50;;
77384;SDS011;66443;49.122;8.346;2023-02-19T00:35:15;2.97;;;2.67;;
77384;SDS011;66443;49.122;8.346;2023-02-19T00:37:41;2.53;;;2.33;;
77384;SDS011;66443;49.122;8.346;2023-02-19T00:40:06;2.60;;;2.40;;
77384;SDS011;66443;49.122;8.346;2023-02-19T00:42:31;2.60;;;2.40;;
77384;SDS011;66443;49.122;8.346;2023-02-19T00:44:56;2.70;;;2.50;;
77384;SDS011;66443;49.122;8.346;2023-02-19T00:47:21;2.40;;;2.20;;
77384;SDS011;66443;49.122;8.346;2023-02-19T00:49:47;2.57;;;2.37;;
77384;SDS011;66443;49.122;8.346;2023-02-19T00:52:12;2.40;;;2.20;;
77384;SDS011;66443;49.122;8.346;2023-02-19T00:54:37;2.40;;;2.30;;
77384;SDS011;66443;49.122;8.346;2023-02-19T00:57:02;2.87;;;2.67;;
77384;SDS011;66443;49.122;8.346;2023-02-19T00:59:27;2.33;;;2.13;;
77384;SDS011;66443;49.122;8.346;2023-02-19T01:01:53;2.47;;;2.27;;
77384;SDS011;66443;49.122;8.346;2023-02-19T01:04:18;2.20;;;2.10;;
77384;SDS011;66443;49.122;8.346;2023-02-19T01:06:43;2.57;;;2.37;;
77384;SDS011;66443;49.122;8.346;2023-02-19T01:09:08;2.50;;;2.30;;
77384;SDS011;66443;49.122;8.346;2023-02-19T01:11:33;2.33;;;2.13;;
77384;SDS011;66443;49.122;8.346;2023-02-19T01:13:59;2.30;;;2.10;;
77384;SDS011;66443;49.122;8.346;2023-02-19T01:16:25;2.93;;;2.27;;
77384;SDS011;66443;49.122;8.346;2023-02-19T01:18:51;2.23;;;2.13;;
77384;SDS011;66443;49.122;8.346;2023-02-19T01:21:21;2.47;;;2.27;;
77384;SDS011;66443;49.122;8.346;2023-02-19T01:23:46;2.17;;;2.03;;
77384;SDS011;66443;49.122;8.346;2023-02-19T01:26:13;2.83;;;2.63;;
77384;SDS011;66443;49.122;8.346;2023-02-19T01:28:38;5.43;;;2.43;;
77384;SDS011;66443;49.122;8.346;2023-02-19T01:31:04;2.50;;;2.30;;
77384;SDS011;66443;49.122;8.346;2023-02-19T01:33:30;2.90;;;2.70;;
77384;SDS011;66443;49.122;8.346;2023-02-19T01:35:55;2.50;;;2.30;;
77384;SDS011;66443;49.122;8.346;2023-02-19T01:38:20;2.93;;;2.40;;
77384;SDS011;66443;49.122;8.346;2023-02-19T01:40:52;3.03;;;2.63;;
77384;SDS011;66443;49.122;8.346;2023-02-19T01:43:17;2.70;;;2.50;;
77384;SDS011;66443;49.122;8.346;2023-02-19T01:45:43;2.43;;;2.23;;
77384;SDS011;66443;49.122;8.346;2023-02-19T01:48:10;2.93;;;2.70;;
77384;SDS011;66443;49.122;8.346;2023-02-19T01:50:40;2.53;;;2.23;;
77384;SDS011;66443;49.122;8.346;2023-02-19T01:53:07;2.33;;;2.17;;
77384;SDS011;66443;49.122;8.346;2023-02-19T01:55:33;2.37;;;2.27;;
77384;SDS011;66443;49.122;8.346;2023-02-19T01:57:59;1.87;;;1.77;;
77384;SDS011;66443;49.122;8.346;2023-02-19T02:00:25;2.60;;;2.40;;
77384;SDS011;66443;49.122;8.346;2023-02-19T02:02:51;2.17;;;2.07;;
77384;SDS011;66443;49.122;8.346;2023-02-19T02:05:19;2.80;;;2.60;;
77384;SDS011;66443;49.122;8.346;2023-02-19T02:07:45;2.20;;;2.00;;
77384;SDS011;66443;49.122;8.346;2023-02-19T02:10:29;2.30;;;2.10;;
77384;SDS011;66443;49.122;8.346;2023-02-19T02:12:57;3.00;;;1.97;;
77384;SDS011;66443;49.122;8.346;2023-02-19T02:15:23;2.20;;;2.00;;
77384;SDS011;66443;49.122;8.346;2023-02-19T02:17:55;1.90;;;1.80;;
77384;SDS011;66443;49.122;8.346;2023-02-19T02:22:55;2.23;;;2.00;;
77384;SDS011;66443;49.122;8.346;2023-02-19T02:28:12;2.20;;;2.10;;
77384;SDS011;66443;49.122;8.346;2023-02-19T02:33:30;2.03;;;1.93;;
77384;SDS011;66443;49.122;8.346;2023-02-19T02:35:57;1.97;;;1.87;;
77384;SDS011;66443;49.122;8.346;2023-02-19T02:38:24;2.13;;;2.03;;
77384;SDS011;66443;49.122;8.346;2023-02-19T02:40:50;1.90;;;1.80;;
77384;SDS011;66443;49.122;8.346;2023-02-19T02:43:15;1.90;;;1.80;;
77384;SDS011;66443;49.122;8.346;2023-02-19T02:45:40;2.40;;;2.30;;
77384;SDS011;66443;49.122;8.346;2023-02-19T02:50:45;2.33;;;2.13;;
77384;SDS011;66443;49.122;8.346;2023-02-19T02:53:13;2.03;;;1.83;;
77384;SDS011;66443;49.122;8.346;2023-02-19T02:55:58;2.03;;;1.93;;
77384;SDS011;66443;49.122;8.346;2023-02-19T02:58:24;2.23;;;2.00;;
77384;SDS011;66443;49.122;8.346;2023-02-19T03:00:53;1.73;;;1.63;;
77384;SDS011;66443;49.122;8.346;2023-02-19T03:03:38;1.90;;;1.80;;
77384;SDS011;66443;49.122;8.346;2023-02-19T03:06:06;2.27;;;2.07;;
77384;SDS011;66443;49.122;8.346;2023-02-19T03:08:47;2.27;;;2.07;;
77384;SDS011;66443;49.122;8.346;2023-02-19T03:11:14;2.07;;;1.97;;
77384;SDS011;66443;49.122;8.346;2023-02-19T03:14:40;2.57;;;2.37;;
77384;SDS011;66443;49.122;8.346;2023-02-19T03:17:12;2.40;;;2.20;;
77384;SDS011;66443;49.122;8.346;2023-02-19T03:19:58;2.30;;;2.10;;
77384;SDS011;66443;49.122;8.346;2023-02-19T03:22:26;2.00;;;1.90;;
77384;SDS011;66443;49.122;8.346;2023-02-19T03:24:54;2.43;;;2.10;;
77384;SDS011;66443;49.122;8.346;2023-02-19T03:27:39;2.03;;;1.93;;
77384;SDS011;66443;49.122;8.346;2023-02-19T03:30:08;2.53;;;2.37;;
77384;SDS011;66443;49.122;8.346;2023-02-19T03:32:51;2.10;;;2.00;;
77384;SDS011;66443;49.122;8.346;2023-02-19T03:35:23;2.40;;;2.20;;
77384;SDS011;66443;49.122;8.346;2023-02-19T03:37:52;2.63;;;2.40;;
77384;SDS011;66443;49.122;8.346;2023-02-19T03:40:21;2.37;;;2.27;;
77384;SDS011;66443;49.122;8.346;2023-02-19T03:42:55;2.67;;;2.47;;
77384;SDS011;66443;49.122;8.346;2023-02-19T03:45:24;2.47;;;2.30;;
77384;SDS011;66443;49.122;8.346;2023-02-19T03:50:42;2.73;;;2.53;;
77384;SDS011;66443;49.122;8.346;2023-02-19T03:53:11;3.20;;;3.00;;
77384;SDS011;66443;49.122;8.346;2023-02-19T03:58:07;3.37;;;3.07;;
77384;SDS011;66443;49.122;8.346;2023-02-19T04:00:38;3.13;;;2.93;;
77384;SDS011;66443;49.122;8.346;2023-02-19T04:03:06;3.33;;;3.13;;
77384;SDS011;66443;49.122;8.346;2023-02-19T04:05:34;3.20;;;2.90;;
77384;SDS011;66443;49.122;8.346;2023-02-19T04:08:11;3.87;;;3.57;;
77384;SDS011;66443;49.122;8.346;2023-02-19T04:10:37;3.40;;;3.10;;
77384;SDS011;66443;49.122;8.346;2023-02-19T04:13:05;5.40;;;3.53;;
77384;SDS011;66443;49.122;8.346;2023-02-19T04:15:33;3.50;;;3.20;;
77384;SDS011;66443;49.122;8.346;2023-02-19T04:18:03;3.40;;;3.10;;
77384;SDS011;66443;49.122;8.346;2023-02-19T04:20:32;3.60;;;3.30;;
77384;SDS011;66443;49.122;8.346;2023-02-19T04:22:58;3.50;;;3.17;;
77384;SDS011;66443;49.122;8.346;2023-02-19T04:25:23;3.90;;;3.60;;
77384;SDS011;66443;49.122;8.346;2023-02-19T04:27:50;3.60;;;3.30;;
77384;SDS011;66443;49.122;8.346;2023-02-19T04:30:15;4.17;;;3.87;;
77384;SDS011;66443;49.122;8.346;2023-02-19T04:32:41;3.27;;;2.97;;
77384;SDS011;66443;49.122;8.346;2023-02-19T04:35:06;4.10;;;3.70;;
77384;SDS011;66443;49.122;8.346;2023-02-19T04:37:31;3.50;;;3.20;;
77384;SDS011;66443;49.122;8.346;2023-02-19T04:39:56;3.73;;;3.43;;
77384;SDS011;66443;49.122;8.346;2023-02-19T04:42:21;3.23;;;3.03;;
77384;SDS011;66443;49.122;8.346;2023-02-19T04:44:46;3.47;;;3.17;;
77384;SDS011;66443;49.122;8.346;2023-02-19T04:47:12;3.60;;;3.30;;
77384;SDS011;66443;49.122;8.346;2023-02-19T04:49:37;3.60;;;3.30;;
77384;SDS011;66443;49.122;8.346;2023-02-19T04:52:02;3.63;;;3.33;;
77384;SDS011;66443;49.122;8.346;2023-02-19T04:54:27;3.60;;;3.30;;
77384;SDS011;66443;49.122;8.346;2023-02-19T04:56:52;3.53;;;3.23;;
77384;SDS011;66443;49.122;8.346;2023-02-19T04:59:18;3.77;;;3.47;;
77384;SDS011;66443;49.122;8.346;2023-02-19T05:01:43;3.83;;;3.43;;
77384;SDS011;66443;49.122;8.346;2023-02-19T05:04:08;4.50;;;4.10;;
77384;SDS011;66443;49.122;8.346;2023-02-19T05:06:33;4.43;;;4.03;;
77384;SDS011;66443;49.122;8.346;2023-02-19T05:08:58;4.00;;;3.70;;
77384;SDS011;66443;49.122;8.346;2023-02-19T05:11:24;4.17;;;3.83;;
77384;SDS011;66443;49.122;8.346;2023-02-19T05:13:49;4.37;;;3.93;;
77384;SDS011;66443;49.122;8.346;2023-02-19T05:16:14;3.87;;;3.57;;
77384;SDS011;66443;49.122;8.346;2023-02-19T05:18:43;3.67;;;3.37;;
77384;SDS011;66443;49.122;8.346;2023-02-19T05:21:09;3.17;;;2.87;;
77384;SDS011;66443;49.122;8.346;2023-02-19T05:23:34;4.00;;;3.70;;
77384;SDS011;66443;49.122;8.346;2023-02-19T05:26:03;4.10;;;3.40;;
77384;SDS011;66443;49.122;8.346;2023-02-19T05:28:28;3.73;;;3.23;;
77384;SDS011;66443;49.122;8.346;2023-02-19T05:30:54;3.73;;;3.27;;
77384;SDS011;66443;49.122;8.346;2023-02-19T05:33:21;3.83;;;3.53;;
77384;SDS011;66443;49.122;8.346;2023-02-19T05:35:47;5.53;;;3.37;;
77384;SDS011;66443;49.122;8.346;2023-02-19T05:38:13;3.50;;;3.20;;
77384;SDS011;66443;49.122;8.346;2023-02-19T05:40:39;3.43;;;3.07;;
77384;SDS011;66443;49.122;8.346;2023-02-19T05:43:05;3.90;;;3.30;;
77384;SDS011;66443;49.122;8.346;2023-02-19T05:45:31;4.27;;;3.97;;
77384;SDS011;66443;49.122;8.346;2023-02-19T05:47:56;3.97;;;3.57;;
77384;SDS011;66443;49.122;8.346;2023-02-19T05:50:22;3.10;;;2.90;;
77384;SDS011;66443;49.122;8.346;2023-02-19T05:52:47;3.80;;;3.50;;
77384;SDS011;66443;49.122;8.346;2023-02-19T05:55:12;3.57;;;3.27;;
77384;SDS011;66443;49.122;8.346;2023-02-19T05:57:41;3.43;;;3.13;;
77384;SDS011;66443;49.122;8.346;2023-02-19T06:00:07;3.63;;;3.33;;
77384;SDS011;66443;49.122;8.346;2023-02-19T06:02:33;4.10;;;3.70;;
77384;SDS011;66443;49.122;8.346;2023-02-19T06:04:58;4.60;;;4.23;;
77384;SDS011;66443;49.122;8.346;2023-02-19T06:07:23;4.10;;;3.73;;
77384;SDS011;66443;49.122;8.346;2023-02-19T06:09:51;3.47;;;3.17;;
77384;SDS011;66443;49.122;8.346;2023-02-19T06:12:16;4.97;;;4.47;;
77384;SDS011;66443;49.122;8.346;2023-02-19T06:14:41;4.47;;;4.07;;
77384;SDS011;66443;49.122;8.346;2023-02-19T06:17:06;4.13;;;3.73;;
77384;SDS011;66443;49.122;8.346;2023-02-19T06:19:31;4.33;;;4.00;;
77384;SDS011;66443;49.122;8.346;2023-02-19T06:21:57;4.17;;;3.77;;
77384;SDS011;66443;49.122;8.346;2023-02-19T06:24:22;3.97;;;3.63;;
77384;SDS011;66443;49.122;8.346;2023-02-19T06:26:47;3.67;;;3.37;;
77384;SDS011;66443;49.122;8.346;2023-02-19T06:29:12;4.27;;;3.87;;
77384;SDS011;66443;49.122;8.346;2023-02-19T06:31:37;3.67;;;3.37;;
77384;SDS011;66443;49.122;8.346;2023-02-19T06:34:03;3.30;;;3.00;;
77384;SDS011;66443;49.122;8.346;2023-02-19T06:36:28;3.30;;;3.00;;
77384;SDS011;66443;49.122;8.346;2023-02-19T06:38:58;4.60;;;4.20;;
77384;SDS011;66443;49.122;8.346;2023-02-19T06:41:23;4.20;;;3.80;;
77384;SDS011;66443;49.122;8.346;2023-02-19T06:43:48;4.20;;;3.67;;
77384;SDS011;66443;49.122;8.346;2023-02-19T06:46:14;5.00;;;4.60;;
77384;SDS011;66443;49.122;8.346;2023-02-19T06:48:39;5.57;;;4.37;;
77384;SDS011;66443;49.122;8.346;2023-02-19T06:51:05;4.20;;;3.90;;
77384;SDS011;66443;49.122;8.346;2023-02-19T06:53:30;4.00;;;3.70;;
77384;SDS011;66443;49.122;8.346;2023-02-19T06:55:56;4.40;;;4.00;;
77384;SDS011;66443;49.122;8.346;2023-02-19T06:58:21;4.37;;;4.00;;
77384;SDS011;66443;49.122;8.346;2023-02-19T07:00:46;4.43;;;4.03;;
77384;SDS011;66443;49.122;8.346;2023-02-19T07:03:12;4.57;;;4.20;;
77384;SDS011;66443;49.122;8.346;2023-02-19T07:05:37;4.63;;;3.70;;
77384;SDS011;66443;49.122;8.346;2023-02-19T07:08:03;4.47;;;4.07;;
77384;SDS011;66443;49.122;8.346;2023-02-19T07:10:28;4.00;;;3.40;;
77384;SDS011;66443;49.122;8.346;2023-02-19T07:12:53;4.53;;;4.13;;
77384;SDS011;66443;49.122;8.346;2023-02-19T07:15:18;4.40;;;4.10;;
77384;SDS011;66443;49.122;8.346;2023-02-19T07:17:43;4.77;;;4.37;;
77384;SDS011;66443;49.122;8.346;2023-02-19T07:20:09;4.70;;;4.27;;
77384;SDS011;66443;49.122;8.346;2023-02-19T07:22:34;4.40;;;3.87;;
77384;SDS011;66443;49.122;8.346;2023-02-19T07:24:59;4.70;;;4.30;;
77384;SDS011;66443;49.122;8.346;2023-02-19T07:27:24;4.13;;;3.80;;
77384;SDS011;66443;49.122;8.346;2023-02-19T07:29:49;4.57;;;4.17;;
77384;SDS011;66443;49.122;8.346;2023-02-19T07:32:15;4.53;;;4.13;;
77384;SDS011;66443;49.122;8.346;2023-02-19T07:34:40;9.60;;;4.23;;
77384;SDS011;66443;49.122;8.346;2023-02-19T07:37:05;4.60;;;3.93;;
77384;SDS011;66443;49.122;8.346;2023-02-19T07:39:30;4.00;;;3.70;;
77384;SDS011;66443;49.122;8.346;2023-02-19T07:41:56;4.40;;;4.00;;
77384;SDS011;66443;49.122;8.346;2023-02-19T07:44:21;5.07;;;4.57;;
77384;SDS011;66443;49.122;8.346;2023-02-19T07:46:46;5.07;;;4.68;;
77384;SDS011;66443;49.122;8.346;2023-02-19T07:49:11;4.80;;;4.40;;
77384;SDS011;66443;49.122;8.346;2023-02-19T07:51:37;4.67;;;4.27;;
77384;SDS011;66443;49.122;8.346;2023-02-19T07:54:03;4.20;;;3.80;;
77384;SDS011;66443;49.122;8.346;2023-02-19T07:56:29;4.27;;;3.87;;
77384;SDS011;66443;49.122;8.346;2023-02-19T07:58:54;4.53;;;4.13;;
77384;SDS011;66443;49.122;8.346;2023-02-19T08:01:20;4.27;;;3.67;;
77384;SDS011;66443;49.122;8.346;2023-02-19T08:04:04;3.60;;;3.30;;
77384;SDS011;66443;49.122;8.346;2023-02-19T08:06:29;4.57;;;3.70;;
77384;SDS011;66443;49.122;8.346;2023-02-19T08:08:54;3.47;;;3.20;;
77384;SDS011;66443;49.122;8.346;2023-02-19T08:11:21;3.37;;;3.07;;
77384;SDS011;66443;49.122;8.346;2023-02-19T08:14:05;2.97;;;2.77;;
77384;SDS011;66443;49.122;8.346;2023-02-19T08:16:30;3.40;;;3.10;;
77384;SDS011;66443;49.122;8.346;2023-02-19T08:18:55;2.87;;;2.67;;
77384;SDS011;66443;49.122;8.346;2023-02-19T08:21:20;3.70;;;3.40;;
77384;SDS011;66443;49.122;8.346;2023-02-19T08:23:46;3.50;;;3.20;;
77384;SDS011;66443;49.122;8.346;2023-02-19T08:26:11;3.20;;;2.90;;
77384;SDS011;66443;49.122;8.346;2023-02-19T08:28:36;3.33;;;3.13;;
77384;SDS011;66443;49.122;8.346;2023-02-19T08:31:03;4.03;;;3.20;;
77384;SDS011;66443;49.122;8.346;2023-02-19T08:33:29;3.90;;;3.17;;
77384;SDS011;66443;49.122;8.346;2023-02-19T08:35:55;6.37;;;2.47;;
77384;SDS011;66443;49.122;8.346;2023-02-19T08:38:20;4.57;;;3.37;;
77384;SDS011;66443;49.122;8.346;2023-02-19T08:40:45;3.10;;;2.80;;
77384;SDS011;66443;49.122;8.346;2023-02-19T08:43:11;3.43;;;2.50;;
77384;SDS011;66443;49.122;8.346;2023-02-19T08:45:37;3.07;;;2.83;;
77384;SDS011;66443;49.122;8.346;2023-02-19T08:48:03;3.63;;;2.83;;
77384;SDS011;66443;49.122;8.346;2023-02-19T08:50:28;2.77;;;2.57;;
77384;SDS011;66443;49.122;8.346;2023-02-19T08:52:53;3.20;;;2.50;;
77384;SDS011;66443;49.122;8.346;2023-02-19T08:55:19;2.77;;;2.57;;
77384;SDS011;66443;49.122;8.346;2023-02-19T08:57:45;2.80;;;2.60;;
77384;SDS011;66443;49.122;8.346;2023-02-19T09:00:10;2.60;;;2.40;;
77384;SDS011;66443;49.122;8.346;2023-02-19T09:02:36;3.30;;;3.10;;
77384;SDS011;66443;49.122;8.346;2023-02-19T09:05:01;3.53;;;3.00;;
77384;SDS011;66443;49.122;8.346;2023-02-19T09:07:27;3.20;;;2.90;;
77384;SDS011;66443;49.122;8.346;2023-02-19T09:09:52;3.23;;;2.93;;
77384;SDS011;66443;49.122;8.346;2023-02-19T09:12:17;3.93;;;3.53;;
77384;SDS011;66443;49.122;8.346;2023-02-19T09:14:43;3.13;;;2.93;;
77384;SDS011;66443;49.122;8.346;2023-02-19T09:17:08;4.17;;;3.77;;
77384;SDS011;66443;49.122;8.346;2023-02-19T09:19:34;3.70;;;3.40;;
77384;SDS011;66443;49.122;8.346;2023-02-19T09:21:59;3.03;;;2.83;;
77384;SDS011;66443;49.122;8.346;2023-02-19T09:24:25;3.20;;;2.90;;
77384;SDS011;66443;49.122;8.346;2023-02-19T09:26:51;3.03;;;2.83;;
77384;SDS011;66443;49.122;8.346;2023-02-19T09:29:16;2.70;;;2.50;;
77384;SDS011;66443;49.122;8.346;2023-02-19T09:31:42;3.63;;;3.00;;
77384;SDS011;66443;49.122;8.346;2023-02-19T09:34:07;3.97;;;3.67;;
77384;SDS011;66443;49.122;8.346;2023-02-19T09:36:32;3.33;;;3.00;;
77384;SDS011;66443;49.122;8.346;2023-02-19T09:38:58;4.67;;;3.20;;
77384;SDS011;66443;49.122;8.346;2023-02-19T09:43:52;3.20;;;3.00;;
77384;SDS011;66443;49.122;8.346;2023-02-19T09:46:21;3.10;;;2.83;;
77384;SDS011;66443;49.122;8.346;2023-02-19T09:48:48;3.13;;;2.93;;
77384;SDS011;66443;49.122;8.346;2023-02-19T09:51:14;3.93;;;3.20;;
77384;SDS011;66443;49.122;8.346;2023-02-19T09:53:41;5.03;;;3.27;;
77384;SDS011;66443;49.122;8.346;2023-02-19T09:56:07;4.37;;;2.93;;
77384;SDS011;66443;49.122;8.346;2023-02-19T09:58:33;3.37;;;3.07;;
77384;SDS011;66443;49.122;8.346;2023-02-19T10:01:00;3.97;;;2.93;;
77384;SDS011;66443;49.122;8.346;2023-02-19T10:03:32;3.50;;;3.20;;
77384;SDS011;66443;49.122;8.346;2023-02-19T10:06:00;3.53;;;3.23;;
77384;SDS011;66443;49.122;8.346;2023-02-19T10:08:26;3.30;;;2.90;;
77384;SDS011;66443;49.122;8.346;2023-02-19T10:10:51;3.70;;;3.07;;
77384;SDS011;66443;49.122;8.346;2023-02-19T10:13:18;5.23;;;4.20;;
77384;SDS011;66443;49.122;8.346;2023-02-19T10:15:45;3.53;;;3.23;;
77384;SDS011;66443;49.122;8.346;2023-02-19T10:18:11;4.60;;;3.10;;
77384;SDS011;66443;49.122;8.346;2023-02-19T10:20:39;4.37;;;2.70;;
77384;SDS011;66443;49.122;8.346;2023-02-19T10:23:05;3.63;;;2.87;;
77384;SDS011;66443;49.122;8.346;2023-02-19T10:25:31;3.77;;;3.07;;
77384;SDS011;66443;49.122;8.346;2023-02-19T10:28:00;3.77;;;3.47;;
77384;SDS011;66443;49.122;8.346;2023-02-19T10:30:32;3.40;;;3.10;;
77384;SDS011;66443;49.122;8.346;2023-02-19T10:33:02;3.30;;;3.00;;
77384;SDS011;66443;49.122;8.346;2023-02-19T10:35:28;2.93;;;2.30;;
77384;SDS011;66443;49.122;8.346;2023-02-19T10:37:54;2.70;;;2.50;;
77384;SDS011;66443;49.122;8.346;2023-02-19T10:40:24;2.67;;;2.47;;
77384;SDS011;66443;49.122;8.346;2023-02-19T10:42:51;3.13;;;2.83;;
77384;SDS011;66443;49.122;8.346;2023-02-19T10:45:18;2.63;;;2.43;;
77384;SDS011;66443;49.122;8.346;2023-02-19T10:47:45;3.20;;;2.90;;
77384;SDS011;66443;49.122;8.346;2023-02-19T10:50:22;4.53;;;3.13;;
77384;SDS011;66443;49.122;8.346;2023-02-19T10:52:53;4.47;;;2.87;;
77384;SDS011;66443;49.122;8.346;2023-02-19T10:55:27;5.00;;;3.30;;
77384;SDS011;66443;49.122;8.346;2023-02-19T10:57:53;4.27;;;3.63;;
77384;SDS011;66443;49.122;8.346;2023-02-19T11:00:23;4.23;;;3.13;;
77384;SDS011;66443;49.122;8.346;2023-02-19T11:02:50;3.70;;;3.30;;
77384;SDS011;66443;49.122;8.346;2023-02-19T11:05:35;4.20;;;3.50;;
77384;SDS011;66443;49.122;8.346;2023-02-19T11:08:03;3.83;;;3.00;;
77384;SDS011;66443;49.122;8.346;2023-02-19T11:10:37;3.50;;;3.07;;
77384;SDS011;66443;49.122;8.346;2023-02-19T11:13:03;3.20;;;3.00;;
77384;SDS011;66443;49.122;8.346;2023-02-19T11:15:30;3.33;;;3.10;;
77384;SDS011;66443;49.122;8.346;2023-02-19T11:17:58;2.93;;;2.67;;
77384;SDS011;66443;49.122;8.346;2023-02-19T11:20:23;3.93;;;2.63;;
77384;SDS011;66443;49.122;8.346;2023-02-19T11:22:49;3.33;;;2.97;;
77384;SDS011;66443;49.122;8.346;2023-02-19T11:27:53;3.33;;;2.70;;
77384;SDS011;66443;49.122;8.346;2023-02-19T11:30:40;7.07;;;2.80;;
77384;SDS011;66443;49.122;8.346;2023-02-19T11:33:26;4.40;;;2.93;;
77384;SDS011;66443;49.122;8.346;2023-02-19T11:35:53;3.97;;;2.97;;
77384;SDS011;66443;49.122;8.346;2023-02-19T11:38:20;3.53;;;2.60;;
77384;SDS011;66443;49.122;8.346;2023-02-19T11:46:20;3.70;;;3.10;;
77384;SDS011;66443;49.122;8.346;2023-02-19T11:56:25;2.80;;;2.60;;
77384;SDS011;66443;49.122;8.346;2023-02-19T11:59:01;3.47;;;2.77;;
77384;SDS011;66443;49.122;8.346;2023-02-19T12:07:05;3.70;;;2.73;;
77384;SDS011;66443;49.122;8.346;2023-02-19T12:22:29;4.30;;;3.80;;
77384;SDS011;66443;49.122;8.346;2023-02-19T12:27:30;3.58;;;3.28;;
77384;SDS011;66443;49.122;8.346;2023-02-19T12:38:06;7.57;;;3.50;;
77384;SDS011;66443;49.122;8.346;2023-02-19T12:45:54;3.77;;;2.67;;
77384;SDS011;66443;49.122;8.346;2023-02-19T12:50:51;3.53;;;2.63;;
77384;SDS011;66443;49.122;8.346;2023-02-19T12:53:23;3.20;;;2.90;;
77384;SDS011;66443;49.122;8.346;2023-02-19T12:55:53;5.90;;;2.40;;
77384;SDS011;66443;49.122;8.346;2023-02-19T12:58:34;2.97;;;2.33;;
77384;SDS011;66443;49.122;8.346;2023-02-19T13:01:01;3.60;;;2.40;;
77384;SDS011;66443;49.122;8.346;2023-02-19T13:03:29;2.27;;;1.93;;
77384;SDS011;66443;49.122;8.346;2023-02-19T13:08:37;3.93;;;2.30;;
77384;SDS011;66443;49.122;8.346;2023-02-19T13:11:05;3.20;;;2.37;;
77384;SDS011;66443;49.122;8.346;2023-02-19T13:13:39;3.97;;;2.90;;
77384;SDS011;66443;49.122;8.346;2023-02-19T13:16:07;5.07;;;3.07;;
77384;SDS011;66443;49.122;8.346;2023-02-19T13:18:41;3.93;;;2.60;;
77384;SDS011;66443;49.122;8.346;2023-02-19T13:21:07;4.83;;;2.90;;
77384;SDS011;66443;49.122;8.346;2023-02-19T13:23:35;2.60;;;2.40;;
77384;SDS011;66443;49.122;8.346;2023-02-19T13:26:37;4.23;;;3.10;;
77384;SDS011;66443;49.122;8.346;2023-02-19T13:29:15;3.57;;;2.50;;
77384;SDS011;66443;49.122;8.346;2023-02-19T13:31:46;4.10;;;3.43;;
77384;SDS011;66443;49.122;8.346;2023-02-19T13:34:25;4.13;;;2.70;;
77384;SDS011;66443;49.122;8.346;2023-02-19T13:36:53;3.73;;;2.60;;
77384;SDS011;66443;49.122;8.346;2023-02-19T13:39:18;2.60;;;2.40;;
77384;SDS011;66443;49.122;8.346;2023-02-19T13:41:48;3.93;;;2.33;;
77384;SDS011;66443;49.122;8.346;2023-02-19T13:44:20;2.17;;;1.60;;
77384;SDS011;66443;49.122;8.346;2023-02-19T13:46:47;2.73;;;1.87;;
77384;SDS011;66443;49.122;8.346;2023-02-19T13:57:51;4.00;;;2.00;;
77384;SDS011;66443;49.122;8.346;2023-02-19T14:00:46;2.77;;;2.00;;
77384;SDS011;66443;49.122;8.346;2023-02-19T14:05:59;3.50;;;2.60;;
77384;SDS011;66443;49.122;8.346;2023-02-19T14:11:08;3.33;;;1.97;;
77384;SDS011;66443;49.122;8.346;2023-02-19T14:18:56;3.70;;;2.10;;
77384;SDS011;66443;49.122;8.346;2023-02-19T14:21:22;4.10;;;1.87;;
77384;SDS011;66443;49.122;8.346;2023-02-19T14:23:50;2.20;;;1.50;;
77384;SDS011;66443;49.122;8.346;2023-02-19T14:26:16;2.73;;;2.10;;
77384;SDS011;66443;49.122;8.346;2023-02-19T14:28:44;2.07;;;1.87;;
77384;SDS011;66443;49.122;8.346;2023-02-19T14:31:18;2.43;;;1.70;;
77384;SDS011;66443;49.122;8.346;2023-02-19T14:33:45;2.93;;;1.60;;
77384;SDS011;66443;49.122;8.346;2023-02-19T14:41:20;2.33;;;1.50;;
77384;SDS011;66443;49.122;8.346;2023-02-19T14:43:47;3.33;;;1.60;;
77384;SDS011;66443;49.122;8.346;2023-02-19T14:48:40;2.63;;;1.70;;
77384;SDS011;66443;49.122;8.346;2023-02-19T14:51:08;3.10;;;1.70;;
77384;SDS011;66443;49.122;8.346;2023-02-19T14:53:37;2.93;;;1.60;;
77384;SDS011;66443;49.122;8.346;2023-02-19T14:56:03;2.67;;;1.70;;
77384;SDS011;66443;49.122;8.346;2023-02-19T14:58:32;1.80;;;1.40;;
77384;SDS011;66443;49.122;8.346;2023-02-19T15:00:57;2.10;;;1.60;;
77384;SDS011;66443;49.122;8.346;2023-02-19T15:03:24;2.93;;;1.83;;
77384;SDS011;66443;49.122;8.346;2023-02-19T15:05:57;3.50;;;2.63;;
77384;SDS011;66443;49.122;8.346;2023-02-19T15:08:26;2.33;;;2.03;;
77384;SDS011;66443;49.122;8.346;2023-02-19T15:10:52;2.47;;;1.57;;
77384;SDS011;66443;49.122;8.346;2023-02-19T15:13:18;4.03;;;2.33;;
77384;SDS011;66443;49.122;8.346;2023-02-19T15:15:46;1.90;;;1.30;;
77384;SDS011;66443;49.122;8.346;2023-02-19T15:18:18;2.63;;;1.47;;
77384;SDS011;66443;49.122;8.346;2023-02-19T15:20:44;1.50;;;1.30;;
77384;SDS011;66443;49.122;8.346;2023-02-19T15:23:10;2.50;;;1.50;;
77384;SDS011;66443;49.122;8.346;2023-02-19T15:25:38;3.07;;;1.70;;
77384;SDS011;66443;49.122;8.346;2023-02-19T15:30:44;2.20;;;2.00;;
77384;SDS011;66443;49.122;8.346;2023-02-19T15:33:12;2.67;;;1.73;;
77384;SDS011;66443;49.122;8.346;2023-02-19T15:35:39;3.43;;;2.20;;
77384;SDS011;66443;49.122;8.346;2023-02-19T15:38:04;3.77;;;1.80;;
77384;SDS011;66443;49.122;8.346;2023-02-19T15:40:30;2.83;;;1.87;;
77384;SDS011;66443;49.122;8.346;2023-02-19T15:42:56;3.70;;;2.57;;
77384;SDS011;66443;49.122;8.346;2023-02-19T15:45:39;4.77;;;2.73;;
77384;SDS011;66443;49.122;8.346;2023-02-19T15:50:30;3.10;;;2.17;;
77384;SDS011;66443;49.122;8.346;2023-02-19T15:53:05;4.73;;;2.07;;
77384;SDS011;66443;49.122;8.346;2023-02-19T15:55:34;3.47;;;2.93;;
77384;SDS011;66443;49.122;8.346;2023-02-19T15:58:02;2.90;;;2.70;;
77384;SDS011;66443;49.122;8.346;2023-02-19T16:00:44;3.93;;;2.33;;
77384;SDS011;66443;49.122;8.346;2023-02-19T16:03:17;3.03;;;1.90;;
77384;SDS011;66443;49.122;8.346;2023-02-19T16:05:42;5.70;;;2.10;;
77384;SDS011;66443;49.122;8.346;2023-02-19T16:10:36;4.70;;;2.57;;
77384;SDS011;66443;49.122;8.346;2023-02-19T16:13:02;4.20;;;2.07;;
77384;SDS011;66443;49.122;8.346;2023-02-19T16:15:28;3.93;;;2.20;;
77384;SDS011;66443;49.122;8.346;2023-02-19T16:17:54;2.17;;;1.90;;
77384;SDS011;66443;49.122;8.346;2023-02-19T16:22:48;4.37;;;2.50;;
77384;SDS011;66443;49.122;8.346;2023-02-19T16:28:10;4.00;;;2.20;;
77384;SDS011;66443;49.122;8.346;2023-02-19T16:30:35;3.93;;;2.07;;
77384;SDS011;66443;49.122;8.346;2023-02-19T16:35:45;4.07;;;2.40;;
77384;SDS011;66443;49.122;8.346;2023-02-19T16:38:12;5.30;;;2.30;;
77384;SDS011;66443;49.122;8.346;2023-02-19T16:45:41;4.50;;;2.20;;
77384;SDS011;66443;49.122;8.346;2023-02-19T16:48:07;3.57;;;2.57;;
77384;SDS011;66443;49.122;8.346;2023-02-19T16:50:32;3.60;;;1.93;;
77384;SDS011;66443;49.122;8.346;2023-02-19T16:52:58;4.83;;;2.27;;